createdAt,value
2023-04-12T00:00:27.133Z,1.97
2023-04-12T00:03:12.160Z,2.50
2023-04-12T00:05:57.517Z,2.10
2023-04-12T00:08:42.721Z,2.10
2023-04-12T00:11:28.801Z,2.10
2023-04-12T00:14:14.146Z,2.37
2023-04-12T00:16:59.086Z,2.30
2023-04-12T00:19:44.796Z,2.17
2023-04-12T00:22:29.882Z,2.23
2023-04-12T00:25:15.424Z,1.80
2023-04-12T00:28:00.741Z,1.90
2023-04-12T00:30:46.001Z,1.87
2023-04-12T00:33:33.463Z,1.90
2023-04-12T00:36:18.597Z,2.00
2023-04-12T00:39:03.789Z,1.67
2023-04-12T00:41:49.230Z,2.57
2023-04-12T00:44:35.221Z,1.80
2023-04-12T00:47:20.500Z,1.87
2023-04-12T00:50:06.456Z,1.77
2023-04-12T00:52:53.866Z,2.00
2023-04-12T00:55:46.128Z,2.23
2023-04-12T00:58:31.804Z,1.67
2023-04-12T01:01:19.326Z,1.90
2023-04-12T01:04:05.143Z,1.60
2023-04-12T01:07:29.752Z,1.80
2023-04-12T01:10:32.340Z,1.80
2023-04-12T01:13:39.621Z,2.23
2023-04-12T01:16:51.054Z,2.53
2023-04-12T01:19:59.825Z,1.73
2023-04-12T01:23:09.510Z,1.90
2023-04-12T01:26:36.969Z,1.80
2023-04-12T01:29:25.662Z,1.87
2023-04-12T01:32:12.656Z,1.67
2023-04-12T01:34:59.625Z,1.80
2023-04-12T01:37:45.960Z,1.73
2023-04-12T01:40:31.786Z,1.73
2023-04-12T01:43:18.120Z,1.80
2023-04-12T01:46:03.245Z,1.60
2023-04-12T01:48:53.157Z,1.83
2023-04-12T01:51:47.983Z,2.00
2023-04-12T01:54:38.312Z,1.63
2023-04-12T01:57:25.575Z,1.47
2023-04-12T02:00:12.037Z,1.50
2023-04-12T02:03:00.567Z,1.50
2023-04-12T02:05:46.347Z,1.60
2023-04-12T02:08:31.885Z,1.77
2023-04-12T02:11:16.703Z,1.53
2023-04-12T02:14:02.979Z,1.50
2023-04-12T02:16:48.347Z,1.90
2023-04-12T02:19:33.361Z,1.40
2023-04-12T02:22:18.929Z,1.60
2023-04-12T02:25:06.386Z,1.63
2023-04-12T02:27:51.608Z,1.63
2023-04-12T02:30:38.268Z,1.83
2023-04-12T02:33:28.072Z,1.40
2023-04-12T02:36:16.253Z,1.63
2023-04-12T02:39:01.492Z,1.87
2023-04-12T02:41:46.821Z,1.63
2023-04-12T02:44:33.322Z,1.63
2023-04-12T02:47:32.167Z,1.33
2023-04-12T02:50:19.641Z,1.53
2023-04-12T02:53:12.011Z,1.43
2023-04-12T02:56:01.188Z,1.60
2023-04-12T02:58:47.883Z,1.50
2023-04-12T03:01:40.584Z,1.30
2023-04-12T03:04:40.032Z,1.57
2023-04-12T03:07:30.879Z,1.50
2023-04-12T03:10:16.884Z,1.60
2023-04-12T03:13:21.335Z,1.37
2023-04-12T03:16:23.464Z,1.50
2023-04-12T03:19:14.169Z,1.53
2023-04-12T03:22:01.524Z,1.27
2023-04-12T03:24:47.554Z,1.30
2023-04-12T03:27:37.356Z,1.60
2023-04-12T03:30:23.060Z,1.50
2023-04-12T03:33:11.990Z,1.70
2023-04-12T03:35:57.682Z,1.57
2023-04-12T03:38:44.048Z,1.60
2023-04-12T03:41:29.988Z,1.40
2023-04-12T03:44:16.577Z,1.17
2023-04-12T03:47:02.145Z,1.47
2023-04-12T03:50:10.312Z,1.37
2023-04-12T03:52:58.455Z,1.53
2023-04-12T03:55:49.351Z,1.43
2023-04-12T03:58:34.895Z,1.37
2023-04-12T04:01:21.595Z,1.00
2023-04-12T04:04:07.479Z,1.53
2023-04-12T04:06:53.717Z,1.43
2023-04-12T04:09:39.215Z,1.37
2023-04-12T04:12:24.220Z,1.10
2023-04-12T04:15:15.031Z,1.23
2023-04-12T04:18:00.875Z,1.17
2023-04-12T04:20:46.733Z,1.50
2023-04-12T04:23:39.489Z,1.10
2023-04-12T04:26:33.095Z,1.40
2023-04-12T04:29:28.520Z,1.60
2023-04-12T04:32:13.715Z,1.40
2023-04-12T04:34:59.870Z,1.33
2023-04-12T04:37:52.751Z,1.77
2023-04-12T04:40:38.554Z,1.50
2023-04-12T04:43:26.332Z,1.33
2023-04-12T04:46:21.154Z,1.43
2023-04-12T04:49:06.851Z,1.33
2023-04-12T04:51:52.338Z,1.33
2023-04-12T04:54:40.001Z,1.17
2023-04-12T04:57:29.275Z,1.27
2023-04-12T05:00:16.334Z,1.37
2023-04-12T05:03:04.811Z,1.27
2023-04-12T05:05:50.013Z,1.43
2023-04-12T05:08:35.315Z,1.07
2023-04-12T05:11:21.189Z,1.20
2023-04-12T05:14:07.227Z,1.70
2023-04-12T05:16:54.299Z,1.00
2023-04-12T05:19:41.300Z,1.13
2023-04-12T05:22:26.742Z,1.07
2023-04-12T05:25:11.736Z,1.47
2023-04-12T05:28:13.916Z,1.30
2023-04-12T05:30:59.965Z,1.03
2023-04-12T05:33:53.741Z,1.20
2023-04-12T05:36:42.151Z,1.40
2023-04-12T05:39:27.576Z,1.40
2023-04-12T05:42:12.838Z,1.20
2023-04-12T05:44:57.904Z,1.57
2023-04-12T05:47:43.733Z,1.37
2023-04-12T05:50:29.590Z,1.10
2023-04-12T05:53:15.541Z,1.60
2023-04-12T05:56:01.801Z,1.30
2023-04-12T05:58:48.097Z,1.10
2023-04-12T06:01:34.268Z,0.90
2023-04-12T06:04:19.696Z,1.37
2023-04-12T06:07:05.621Z,1.23
2023-04-12T06:09:50.769Z,1.40
2023-04-12T06:12:36.958Z,1.13
2023-04-12T06:15:22.709Z,1.17
2023-04-12T06:18:14.147Z,1.20
2023-04-12T06:21:00.249Z,1.37
2023-04-12T06:23:46.321Z,1.50
2023-04-12T06:26:38.799Z,1.13
2023-04-12T06:29:26.038Z,1.33
2023-04-12T06:32:11.644Z,1.30
2023-04-12T06:34:56.941Z,1.33
2023-04-12T06:37:41.893Z,1.50
2023-04-12T06:40:26.968Z,1.30
2023-04-12T06:43:12.472Z,1.50
2023-04-12T06:45:58.267Z,1.07
2023-04-12T06:48:43.272Z,1.50
2023-04-12T06:51:28.284Z,1.00
2023-04-12T06:54:13.950Z,1.20
2023-04-12T06:56:59.906Z,1.57
2023-04-12T06:59:44.971Z,1.30
2023-04-12T07:02:30.370Z,1.60
2023-04-12T07:05:15.872Z,1.30
2023-04-12T07:08:01.006Z,1.03
2023-04-12T07:10:46.169Z,1.97
2023-04-12T07:13:31.291Z,1.53
2023-04-12T07:16:17.553Z,1.77
2023-04-12T07:19:03.098Z,1.70
2023-04-12T07:21:48.325Z,1.10
2023-04-12T07:24:33.526Z,1.23
2023-04-12T07:27:18.492Z,2.50
2023-04-12T07:30:04.136Z,1.20
2023-04-12T07:32:49.599Z,1.60
2023-04-12T07:35:34.841Z,1.70
2023-04-12T07:38:20.296Z,1.10
2023-04-12T07:41:05.925Z,1.20
2023-04-12T07:43:50.787Z,1.53
2023-04-12T07:46:36.019Z,1.40
2023-04-12T07:49:20.888Z,1.37
2023-04-12T07:52:06.131Z,1.20
2023-04-12T07:54:51.345Z,1.30
2023-04-12T07:57:36.376Z,1.80
2023-04-12T08:00:21.565Z,1.40
2023-04-12T08:03:06.973Z,1.40
2023-04-12T08:05:53.763Z,1.53
2023-04-12T08:08:38.944Z,1.20
2023-04-12T08:11:24.047Z,1.50
2023-04-12T08:14:10.391Z,1.47
2023-04-12T08:16:55.456Z,1.33
2023-04-12T08:19:40.510Z,1.10
2023-04-12T08:22:26.195Z,1.33
2023-04-12T08:25:11.628Z,1.40
2023-04-12T08:27:56.873Z,1.30
2023-04-12T08:30:43.584Z,1.43
2023-04-12T08:33:28.738Z,1.40
2023-04-12T08:36:13.878Z,1.53
2023-04-12T08:39:02.543Z,1.27
2023-04-12T08:41:47.917Z,1.97
2023-04-12T08:44:37.884Z,1.50
2023-04-12T08:47:23.530Z,1.87
2023-04-12T08:50:10.801Z,1.40
2023-04-12T08:52:57.884Z,1.60
2023-04-12T08:55:45.994Z,1.97
2023-04-12T08:58:31.740Z,1.30
2023-04-12T09:01:17.956Z,1.30
2023-04-12T09:04:06.809Z,1.47
2023-04-12T09:06:52.512Z,1.43
2023-04-12T09:09:45.984Z,1.97
2023-04-12T09:12:31.041Z,1.20
2023-04-12T09:15:18.233Z,1.50
2023-04-12T09:18:09.990Z,1.63
2023-04-12T09:21:08.786Z,2.40
2023-04-12T09:24:25.928Z,1.43
2023-04-12T09:27:11.057Z,1.37
2023-04-12T09:30:09.618Z,1.43
2023-04-12T09:32:55.631Z,1.30
2023-04-12T09:35:42.881Z,2.00
2023-04-12T09:38:32.018Z,1.40
2023-04-12T09:41:26.382Z,1.57
2023-04-12T09:44:34.194Z,1.67
2023-04-12T09:47:19.846Z,1.70
2023-04-12T09:50:07.809Z,2.43
2023-04-12T09:52:53.975Z,1.37
2023-04-12T09:55:38.823Z,1.10
2023-04-12T09:58:25.070Z,1.20
2023-04-12T10:01:11.064Z,1.70
2023-04-12T10:03:58.924Z,1.50
2023-04-12T10:06:45.669Z,1.10
2023-04-12T10:09:31.278Z,1.60
2023-04-12T10:12:17.091Z,2.53
2023-04-12T10:15:17.863Z,2.37
2023-04-12T10:18:05.198Z,1.20
2023-04-12T10:20:50.763Z,1.10
2023-04-12T10:23:39.026Z,1.40
2023-04-12T10:26:24.519Z,1.37
2023-04-12T10:29:23.366Z,1.23
2023-04-12T10:32:25.076Z,1.20
2023-04-12T10:35:16.110Z,1.10
2023-04-12T10:38:05.223Z,1.20
2023-04-12T10:41:22.073Z,1.40
2023-04-12T10:44:29.002Z,1.30
2023-04-12T10:47:13.939Z,1.50
2023-04-12T10:50:29.453Z,1.23
2023-04-12T10:53:25.185Z,1.10
2023-04-12T10:56:31.922Z,1.30
2023-04-12T10:59:18.329Z,1.40
2023-04-12T11:02:04.763Z,0.90
2023-04-12T11:05:11.196Z,1.20
2023-04-12T11:08:23.346Z,1.03
2023-04-12T11:11:20.774Z,1.20
2023-04-12T11:14:09.919Z,3.10
2023-04-12T11:17:18.362Z,2.57
2023-04-12T11:20:04.765Z,1.20
2023-04-12T11:22:51.806Z,1.60
2023-04-12T11:25:37.618Z,1.20
2023-04-12T11:28:28.663Z,1.30
2023-04-12T11:31:19.629Z,1.30
2023-04-12T11:34:04.916Z,1.20
2023-04-12T11:36:54.199Z,1.07
2023-04-12T11:39:44.938Z,1.53
2023-04-12T11:42:29.967Z,1.00
2023-04-12T11:45:20.136Z,1.03
2023-04-12T11:48:09.116Z,1.43
2023-04-12T11:51:07.631Z,1.10
2023-04-12T11:53:56.842Z,1.23
2023-04-12T11:56:42.446Z,1.10
2023-04-12T11:59:34.507Z,1.17
2023-04-12T12:02:23.903Z,1.07
2023-04-12T12:05:11.172Z,1.00
2023-04-12T12:07:57.179Z,1.10
2023-04-12T12:10:59.786Z,1.50
2023-04-12T12:13:53.271Z,1.47
2023-04-12T12:16:41.325Z,1.10
2023-04-12T12:19:36.487Z,1.57
2023-04-12T12:22:22.694Z,1.17
2023-04-12T12:25:07.987Z,0.87
2023-04-12T12:27:57.424Z,1.13
2023-04-12T12:30:42.667Z,1.13
2023-04-12T12:33:46.103Z,1.07
2023-04-12T12:36:36.727Z,0.90
2023-04-12T12:39:22.057Z,1.47
2023-04-12T12:42:07.393Z,1.20
2023-04-12T12:44:52.465Z,0.90
2023-04-12T12:47:55.026Z,1.10
2023-04-12T12:50:40.294Z,2.47
2023-04-12T12:53:25.604Z,1.13
2023-04-12T12:56:13.569Z,1.13
2023-04-12T12:58:58.808Z,1.00
2023-04-12T13:01:44.227Z,0.90
2023-04-12T13:04:29.951Z,1.07
2023-04-12T13:07:15.062Z,0.70
2023-04-12T13:10:00.755Z,0.90
2023-04-12T13:12:45.944Z,2.47
2023-04-12T13:15:31.141Z,1.43
2023-04-12T13:18:16.705Z,1.10
2023-04-12T13:21:01.994Z,0.90
2023-04-12T13:23:47.200Z,1.00
2023-04-12T13:26:32.121Z,0.80
2023-04-12T13:29:17.465Z,0.70
2023-04-12T13:32:03.262Z,0.90
2023-04-12T13:34:48.529Z,1.03
2023-04-12T13:37:33.959Z,0.90
2023-04-12T13:40:19.032Z,1.07
2023-04-12T13:43:04.585Z,0.80
2023-04-12T13:45:50.689Z,1.23
2023-04-12T13:48:36.125Z,0.67
2023-04-12T13:51:21.403Z,1.00
2023-04-12T13:54:06.839Z,1.20
2023-04-12T13:56:52.127Z,0.90
2023-04-12T13:59:37.200Z,0.80
2023-04-12T14:02:22.587Z,1.00
2023-04-12T14:05:08.431Z,0.97
2023-04-12T14:07:55.548Z,0.80
2023-04-12T14:10:40.746Z,1.60
2023-04-12T14:13:27.229Z,0.80
2023-04-12T14:16:12.270Z,2.33
2023-04-12T14:18:57.522Z,1.00
2023-04-12T14:21:42.775Z,2.03
2023-04-12T14:24:27.822Z,2.60
2023-04-12T14:27:15.959Z,1.37
2023-04-12T14:30:02.967Z,3.13
2023-04-12T14:32:49.431Z,2.87
2023-04-12T14:35:34.771Z,1.43
2023-04-12T14:38:20.509Z,1.43
2023-04-12T14:41:09.577Z,2.00
2023-04-12T14:43:54.983Z,1.80
2023-04-12T14:46:40.577Z,1.27
2023-04-12T14:49:25.848Z,2.20
2023-04-12T14:52:11.105Z,3.03
2023-04-12T14:54:56.474Z,6.90
2023-04-12T14:57:41.728Z,15.47
2023-04-12T15:00:29.290Z,9.67
2023-04-12T15:03:15.546Z,7.70
2023-04-12T15:06:00.727Z,4.63
2023-04-12T15:08:45.740Z,3.97
2023-04-12T15:11:35.483Z,3.00
2023-04-12T15:14:22.798Z,2.60
2023-04-12T15:17:08.318Z,2.97
2023-04-12T15:19:53.455Z,3.27
2023-04-12T15:22:39.618Z,4.17
2023-04-12T15:25:25.197Z,3.00
2023-04-12T15:28:10.337Z,6.80
2023-04-12T15:30:56.029Z,12.53
2023-04-12T15:33:41.057Z,27.30
2023-04-12T15:36:33.618Z,32.87
2023-04-12T15:39:18.831Z,32.80
2023-04-12T15:42:05.273Z,59.03
2023-04-12T15:44:50.336Z,53.20
2023-04-12T15:47:35.427Z,48.83
2023-04-12T15:50:22.117Z,115.47
2023-04-12T15:53:07.736Z,132.20
2023-04-12T15:55:56.418Z,108.33
2023-04-12T15:58:43.098Z,74.00
2023-04-12T16:01:28.368Z,63.10
2023-04-12T16:04:13.459Z,59.67
2023-04-12T16:07:02.002Z,84.93
2023-04-12T16:09:47.429Z,87.07
2023-04-12T16:12:32.892Z,74.00
2023-04-12T16:15:19.446Z,58.33
2023-04-12T16:18:04.819Z,41.67
2023-04-12T16:20:51.993Z,32.47
2023-04-12T16:23:40.776Z,46.77
2023-04-12T16:26:25.693Z,117.07
2023-04-12T16:29:10.778Z,218.07
2023-04-12T16:31:56.069Z,253.83
2023-04-12T16:34:43.101Z,283.27
2023-04-12T16:37:29.046Z,274.53
2023-04-12T16:40:14.292Z,256.50
2023-04-12T16:42:59.567Z,239.67
2023-04-12T16:45:46.175Z,234.97
2023-04-12T16:48:32.303Z,221.90
2023-04-12T16:51:18.127Z,206.00
2023-04-12T16:54:03.479Z,189.63
2023-04-12T16:56:48.983Z,186.90
2023-04-12T16:59:34.409Z,176.90
2023-04-12T17:02:19.788Z,170.90
2023-04-12T17:05:06.186Z,159.70
2023-04-12T17:07:54.050Z,160.10
2023-04-12T17:10:39.410Z,150.20
2023-04-12T17:13:24.538Z,145.03
2023-04-12T17:16:10.243Z,143.47
2023-04-12T17:18:55.764Z,131.40
2023-04-12T17:21:42.091Z,126.63
2023-04-12T17:24:28.952Z,122.80
2023-04-12T17:27:14.462Z,127.63
2023-04-12T17:29:59.406Z,125.77
2023-04-12T17:32:47.311Z,113.30
2023-04-12T17:35:32.341Z,108.20
2023-04-12T17:38:17.846Z,109.07
2023-04-12T17:41:03.159Z,106.50
2023-04-12T17:43:48.368Z,105.73
2023-04-12T17:46:34.976Z,97.23
2023-04-12T17:49:20.051Z,100.00
2023-04-12T17:52:06.877Z,97.37
2023-04-12T17:54:52.487Z,94.80
2023-04-12T17:57:37.277Z,95.70
2023-04-12T18:00:23.870Z,91.47
2023-04-12T18:03:11.326Z,87.60
2023-04-12T18:05:58.863Z,88.73
2023-04-12T18:08:44.998Z,82.83
2023-04-12T18:11:30.411Z,80.43
2023-04-12T18:14:15.933Z,79.37
2023-04-12T18:17:01.292Z,79.63
2023-04-12T18:19:46.423Z,74.20
2023-04-12T18:22:31.416Z,76.10
2023-04-12T18:25:17.056Z,71.80
2023-04-12T18:28:02.693Z,72.67
2023-04-12T18:30:47.602Z,76.70
2023-04-12T18:33:32.595Z,71.57
2023-04-12T18:36:17.973Z,66.13
2023-04-12T18:39:04.422Z,66.77
2023-04-12T18:41:51.074Z,61.80
2023-04-12T18:44:37.626Z,63.73
2023-04-12T18:47:22.775Z,62.33
2023-04-12T18:50:08.805Z,59.50
2023-04-12T18:52:54.060Z,60.10
2023-04-12T18:55:39.575Z,57.23
2023-04-12T18:58:26.936Z,57.63
2023-04-12T19:01:13.693Z,55.67
2023-04-12T19:04:01.317Z,52.67
2023-04-12T19:06:47.348Z,54.70
2023-04-12T19:09:32.990Z,52.50
2023-04-12T19:12:18.295Z,53.47
2023-04-12T19:15:03.510Z,46.97
2023-04-12T19:17:49.337Z,49.87
2023-04-12T19:20:34.665Z,49.43
2023-04-12T19:23:20.352Z,47.00
2023-04-12T19:26:06.368Z,45.37
2023-04-12T19:28:55.234Z,45.27
2023-04-12T19:31:40.858Z,40.53
2023-04-12T19:34:27.360Z,43.93
2023-04-12T19:37:12.326Z,42.37
2023-04-12T19:39:57.569Z,40.07
2023-04-12T19:42:43.007Z,40.60
2023-04-12T19:45:28.732Z,36.73
2023-04-12T19:48:14.322Z,39.87
2023-04-12T19:50:59.668Z,38.03
2023-04-12T19:53:47.588Z,39.27
2023-04-12T19:56:32.978Z,35.97
2023-04-12T19:59:17.996Z,36.70
2023-04-12T20:02:03.087Z,31.83
2023-04-12T20:04:48.226Z,35.97
2023-04-12T20:07:34.465Z,34.43
2023-04-12T20:10:20.160Z,34.23
2023-04-12T20:13:09.612Z,30.40
2023-04-12T20:15:55.053Z,32.40
2023-04-12T20:18:40.612Z,33.30
2023-04-12T20:21:25.953Z,33.93
2023-04-12T20:24:12.317Z,30.87
2023-04-12T20:26:57.523Z,30.40
2023-04-12T20:29:43.060Z,30.13
2023-04-12T20:32:28.594Z,26.50
2023-04-12T20:35:14.088Z,28.70
2023-04-12T20:37:59.969Z,26.30
2023-04-12T20:40:46.226Z,27.10
2023-04-12T20:43:33.256Z,25.73
2023-04-12T20:46:25.678Z,27.03
2023-04-12T20:49:11.616Z,25.70
2023-04-12T20:51:58.811Z,23.80
2023-04-12T20:54:45.465Z,24.77
2023-04-12T20:57:30.827Z,22.23
2023-04-12T21:00:19.126Z,21.57
2023-04-12T21:03:05.077Z,23.17
2023-04-12T21:05:52.560Z,22.17
2023-04-12T21:08:38.917Z,22.43
2023-04-12T21:11:24.161Z,21.93
2023-04-12T21:14:10.369Z,20.57
2023-04-12T21:16:55.796Z,22.10
2023-04-12T21:19:41.902Z,21.33
2023-04-12T21:22:26.939Z,21.00
2023-04-12T21:25:15.952Z,19.60
2023-04-12T21:28:01.047Z,18.53
2023-04-12T21:30:46.470Z,19.00
2023-04-12T21:33:32.131Z,17.97
2023-04-12T21:36:17.865Z,17.93
2023-04-12T21:39:04.158Z,17.50
2023-04-12T21:41:48.970Z,18.03
2023-04-12T21:44:34.331Z,16.83
2023-04-12T21:47:19.411Z,16.03
2023-04-12T21:50:05.807Z,15.47
2023-04-12T21:52:50.929Z,16.47
2023-04-12T21:55:36.518Z,14.77
2023-04-12T21:58:21.532Z,16.03
2023-04-12T22:01:07.026Z,15.70
2023-04-12T22:03:52.922Z,17.27
2023-04-12T22:06:38.570Z,14.57
2023-04-12T22:09:24.591Z,14.50
2023-04-12T22:12:09.820Z,14.93
2023-04-12T22:14:57.587Z,16.80
2023-04-12T22:17:43.898Z,13.30
2023-04-12T22:20:29.117Z,12.90
2023-04-12T22:23:17.694Z,14.40
2023-04-12T22:26:08.213Z,15.10
2023-04-12T22:28:54.214Z,11.40
2023-04-12T22:31:39.412Z,13.37
2023-04-12T22:34:26.387Z,14.17
2023-04-12T22:37:11.863Z,11.57
2023-04-12T22:39:57.067Z,11.93
2023-04-12T22:42:47.120Z,12.03
2023-04-12T22:45:32.051Z,11.77
2023-04-12T22:48:17.368Z,10.33
2023-04-12T22:51:02.332Z,10.97
2023-04-12T22:53:47.691Z,11.50
2023-04-12T22:56:32.601Z,11.60
2023-04-12T22:59:18.848Z,11.67
2023-04-12T23:02:04.468Z,11.17
2023-04-12T23:04:51.329Z,10.43
2023-04-12T23:07:36.856Z,10.93
2023-04-12T23:10:22.423Z,11.50
2023-04-12T23:13:08.404Z,9.60
2023-04-12T23:15:54.099Z,9.57
2023-04-12T23:18:39.419Z,9.77
2023-04-12T23:21:24.489Z,9.37
2023-04-12T23:24:12.060Z,9.53
2023-04-12T23:26:58.642Z,9.27
2023-04-12T23:29:44.350Z,8.67
2023-04-12T23:32:29.453Z,8.13
2023-04-12T23:35:14.937Z,9.23
2023-04-12T23:38:01.446Z,8.03
2023-04-12T23:40:47.548Z,8.13
2023-04-12T23:43:37.230Z,7.93
2023-04-12T23:46:22.286Z,7.60
2023-04-12T23:49:08.367Z,6.97
2023-04-12T23:51:53.500Z,7.47
2023-04-12T23:54:38.627Z,7.53
2023-04-12T23:57:24.043Z,7.27
